createdAt,value
2018-04-12T00:00:40.061Z,5.90
2018-04-12T00:03:14.411Z,6.10
2018-04-12T00:05:53.418Z,6.33
2018-04-12T00:08:30.496Z,6.17
2018-04-12T00:11:02.233Z,6.17
2018-04-12T00:13:33.828Z,6.37
2018-04-12T00:16:06.754Z,6.53
2018-04-12T00:18:40.059Z,6.50
2018-04-12T00:21:12.289Z,5.83
2018-04-12T00:23:44.027Z,5.90
2018-04-12T00:26:15.719Z,6.53
2018-04-12T00:28:48.598Z,5.90
2018-04-12T00:31:20.236Z,6.40
2018-04-12T00:33:51.915Z,6.97
2018-04-12T00:36:24.420Z,6.30
2018-04-12T00:41:50.128Z,6.37
2018-04-12T00:44:21.803Z,6.37
2018-04-12T00:46:53.398Z,6.23
2018-04-12T00:49:25.641Z,7.37
2018-04-12T00:51:58.064Z,6.40
2018-04-12T00:54:31.882Z,7.20
2018-04-12T00:57:04.525Z,7.20
2018-04-12T00:59:36.179Z,6.63
2018-04-12T01:02:07.812Z,6.47
2018-04-12T01:04:40.438Z,7.17
2018-04-12T01:07:12.383Z,6.80
2018-04-12T01:09:44.006Z,6.83
2018-04-12T01:12:15.672Z,6.50
2018-04-12T01:14:47.300Z,6.80
2018-04-12T01:17:20.061Z,6.80
2018-04-12T01:19:51.687Z,6.93
2018-04-12T01:22:23.278Z,7.13
2018-04-12T01:24:57.349Z,7.13
2018-04-12T01:27:30.280Z,6.03
2018-04-12T01:30:02.717Z,6.67
2018-04-12T01:32:35.449Z,7.27
2018-04-12T01:35:07.365Z,6.97
2018-04-12T01:37:39.893Z,6.87
2018-04-12T01:40:11.528Z,8.20
2018-04-12T01:42:43.860Z,7.13
2018-04-12T01:45:15.521Z,7.97
2018-04-12T01:47:47.137Z,8.13
2018-04-12T01:50:20.168Z,7.50
2018-04-12T01:52:51.797Z,7.90
2018-04-12T01:55:23.745Z,7.03
2018-04-12T01:57:55.405Z,7.57
2018-04-12T02:00:27.196Z,7.80
2018-04-12T02:02:59.629Z,8.33
2018-04-12T02:05:31.344Z,7.83
2018-04-12T02:08:03.705Z,7.63
2018-04-12T02:10:36.140Z,8.00
2018-04-12T02:13:07.816Z,7.77
2018-04-12T02:15:43.090Z,8.43
2018-04-12T02:18:15.769Z,8.10
2018-04-12T02:20:47.408Z,8.37
2018-04-12T02:23:20.376Z,8.30
2018-04-12T02:25:52.779Z,8.10
2018-04-12T02:28:33.403Z,7.97
2018-04-12T02:31:05.536Z,8.70
2018-04-12T02:33:40.605Z,8.70
2018-04-12T02:36:12.292Z,8.37
2018-04-12T02:38:43.951Z,8.63
2018-04-12T02:41:15.604Z,9.10
2018-04-12T02:43:47.256Z,8.93
2018-04-12T02:46:19.735Z,9.13
2018-04-12T02:48:52.608Z,8.70
2018-04-12T02:51:24.255Z,9.70
2018-04-12T02:53:56.405Z,9.40
2018-04-12T02:56:29.347Z,9.17
2018-04-12T02:59:02.681Z,9.27
2018-04-12T03:01:35.045Z,9.23
2018-04-12T03:04:07.014Z,10.63
2018-04-12T03:06:39.365Z,9.87
2018-04-12T03:09:11.023Z,10.57
2018-04-12T03:11:42.668Z,9.97
2018-04-12T03:14:15.438Z,9.30
2018-04-12T03:16:47.048Z,11.40
2018-04-12T03:19:18.717Z,9.93
2018-04-12T03:21:50.502Z,8.90
2018-04-12T03:24:24.258Z,10.10
2018-04-12T03:26:57.092Z,10.07
2018-04-12T03:29:28.736Z,11.03
2018-04-12T03:32:00.408Z,10.23
2018-04-12T03:34:32.081Z,11.13
2018-04-12T03:37:05.016Z,9.10
2018-04-12T03:39:36.646Z,11.57
2018-04-12T03:42:09.332Z,9.60
2018-04-12T03:44:41.326Z,12.57
2018-04-12T03:47:13.685Z,10.43
2018-04-12T03:49:47.489Z,11.83
2018-04-12T03:52:20.472Z,12.00
2018-04-12T03:54:52.137Z,11.07
2018-04-12T03:57:23.765Z,12.03
2018-04-12T03:59:56.159Z,11.60
2018-04-12T04:02:28.476Z,11.57
2018-04-12T04:05:00.462Z,11.43
2018-04-12T04:07:32.129Z,11.77
2018-04-12T04:10:04.635Z,11.33
2018-04-12T04:12:36.263Z,11.47
2018-04-12T04:15:20.842Z,12.63
2018-04-12T04:18:04.724Z,12.77
2018-04-12T04:20:49.435Z,12.30
2018-04-12T04:23:21.152Z,12.53
2018-04-12T04:25:52.796Z,11.97
2018-04-12T04:28:24.491Z,12.13
2018-04-12T04:30:56.133Z,13.70
2018-04-12T04:33:29.488Z,13.87
2018-04-12T04:36:01.908Z,12.40
2018-04-12T04:41:15.255Z,13.00
2018-04-12T04:43:46.993Z,12.97
2018-04-12T04:46:18.688Z,13.67
2018-04-12T04:48:50.332Z,12.40
2018-04-12T04:51:22.000Z,13.87
2018-04-12T04:53:53.601Z,13.87
2018-04-12T04:56:25.252Z,12.37
2018-04-12T04:58:56.872Z,14.73
2018-04-12T05:01:29.344Z,14.03
2018-04-12T05:04:00.983Z,13.80
2018-04-12T05:06:32.604Z,13.83
2018-04-12T05:09:04.324Z,14.57
2018-04-12T05:11:35.928Z,14.40
2018-04-12T05:14:07.589Z,14.07
2018-04-12T05:16:39.208Z,14.07
2018-04-12T05:19:10.905Z,13.43
2018-04-12T05:21:42.658Z,13.23
2018-04-12T05:24:14.299Z,13.03
2018-04-12T05:26:45.973Z,13.60
2018-04-12T05:29:17.585Z,14.03
2018-04-12T05:31:49.224Z,13.10
2018-04-12T05:34:20.876Z,14.20
2018-04-12T05:36:52.493Z,13.17
2018-04-12T05:39:24.849Z,13.17
2018-04-12T05:41:56.481Z,13.83
2018-04-12T05:44:28.102Z,12.63
2018-04-12T05:46:59.801Z,14.03
2018-04-12T05:49:31.413Z,13.97
2018-04-12T05:52:03.068Z,13.17
2018-04-12T05:54:34.674Z,12.93
2018-04-12T05:57:07.124Z,11.83
2018-04-12T05:59:38.766Z,14.00
2018-04-12T06:02:10.419Z,13.17
2018-04-12T06:04:42.031Z,14.27
2018-04-12T06:07:14.413Z,13.00
2018-04-12T06:09:46.022Z,13.87
2018-04-12T06:12:17.664Z,12.63
2018-04-12T06:14:49.249Z,11.23
2018-04-12T06:17:21.648Z,12.07
2018-04-12T06:19:53.235Z,13.30
2018-04-12T06:22:25.107Z,13.43
2018-04-12T06:24:56.712Z,13.43
2018-04-12T06:27:28.347Z,13.13
2018-04-12T06:29:59.944Z,13.53
2018-04-12T06:32:32.618Z,12.37
2018-04-12T06:35:04.276Z,13.00
2018-04-12T06:37:35.929Z,12.57
2018-04-12T06:40:09.445Z,11.60
2018-04-12T06:42:41.096Z,11.43
2018-04-12T06:45:12.772Z,11.20
2018-04-12T06:47:45.405Z,11.70
2018-04-12T06:50:17.073Z,11.57
2018-04-12T06:52:48.688Z,11.40
2018-04-12T06:55:20.343Z,11.53
2018-04-12T06:57:51.964Z,11.20
2018-04-12T07:00:24.685Z,11.53
2018-04-12T07:02:56.345Z,12.10
2018-04-12T07:05:27.979Z,11.33
2018-04-12T07:07:59.646Z,12.10
2018-04-12T07:10:31.273Z,12.30
2018-04-12T07:13:04.483Z,12.67
2018-04-12T07:15:36.089Z,12.10
2018-04-12T07:18:08.760Z,11.90
2018-04-12T07:20:40.350Z,11.70
2018-04-12T07:23:11.983Z,12.00
2018-04-12T07:25:44.392Z,12.07
2018-04-12T07:28:15.984Z,12.93
2018-04-12T07:30:47.628Z,12.33
2018-04-12T07:33:19.241Z,11.57
2018-04-12T07:35:51.902Z,12.60
2018-04-12T07:38:24.260Z,11.40
2018-04-12T07:40:56.687Z,12.03
2018-04-12T07:43:28.308Z,12.23
2018-04-12T07:46:00.030Z,12.27
2018-04-12T07:48:31.643Z,12.43
2018-04-12T07:51:03.355Z,12.57
2018-04-12T07:53:35.679Z,12.27
2018-04-12T07:56:07.383Z,12.17
2018-04-12T07:58:39.719Z,12.70
2018-04-12T08:01:11.377Z,12.43
2018-04-12T08:03:42.978Z,12.90
2018-04-12T08:06:14.635Z,11.50
2018-04-12T08:08:46.237Z,11.80
2018-04-12T08:11:17.866Z,11.43
2018-04-12T08:13:49.494Z,12.83
2018-04-12T08:16:21.209Z,12.37
2018-04-12T08:18:52.821Z,13.30
2018-04-12T08:21:24.457Z,11.77
2018-04-12T08:23:57.078Z,12.07
2018-04-12T08:26:28.726Z,12.13
2018-04-12T08:29:00.321Z,11.83
2018-04-12T08:31:32.716Z,12.37
2018-04-12T08:34:04.331Z,12.40
2018-04-12T08:36:35.972Z,12.83
2018-04-12T08:39:07.603Z,11.70
2018-04-12T08:41:39.256Z,11.93
2018-04-12T08:44:11.851Z,12.40
2018-04-12T08:46:43.487Z,12.57
2018-04-12T08:49:16.177Z,12.37
2018-04-12T08:51:47.825Z,12.57
2018-04-12T08:54:19.485Z,12.90
2018-04-12T08:56:51.116Z,13.20
2018-04-12T08:59:22.719Z,12.35
2018-04-12T09:01:55.109Z,12.65
2018-04-12T09:04:26.709Z,12.30
2018-04-12T09:06:58.418Z,13.45
2018-04-12T09:09:30.081Z,13.45
2018-04-12T09:12:01.721Z,14.07
2018-04-12T09:14:33.338Z,13.60
2018-04-12T09:17:05.037Z,13.07
2018-04-12T09:19:36.993Z,13.38
2018-04-12T09:22:08.674Z,12.87
2018-04-12T09:24:41.040Z,14.50
2018-04-12T09:27:12.688Z,12.67
2018-04-12T09:29:44.348Z,14.83
2018-04-12T09:32:15.956Z,13.57
2018-04-12T09:34:49.412Z,14.45
2018-04-12T09:37:21.009Z,13.85
2018-04-12T09:39:53.414Z,13.75
2018-04-12T09:42:26.066Z,13.23
2018-04-12T09:44:57.719Z,13.65
2018-04-12T09:47:30.072Z,12.52
2018-04-12T09:50:02.749Z,14.38
2018-04-12T09:52:35.397Z,14.10
2018-04-12T09:55:07.080Z,14.60
2018-04-12T09:57:38.721Z,14.52
2018-04-12T10:03:07.425Z,15.27
2018-04-12T10:08:55.073Z,14.95
2018-04-12T10:11:31.235Z,15.20
2018-04-12T10:14:05.495Z,15.40
2018-04-12T10:16:40.163Z,14.03
2018-04-12T10:19:14.017Z,14.03
2018-04-12T10:21:47.696Z,16.10
2018-04-12T10:24:22.153Z,15.63
2018-04-12T10:26:55.824Z,13.50
2018-04-12T10:29:30.262Z,15.83
2018-04-12T10:32:03.708Z,15.03
2018-04-12T10:34:38.349Z,14.80
2018-04-12T10:37:12.024Z,14.23
2018-04-12T10:39:45.706Z,14.77
2018-04-12T10:42:19.377Z,15.83
2018-04-12T10:44:54.564Z,14.33
2018-04-12T10:47:28.235Z,15.70
2018-04-12T10:50:01.912Z,16.77
2018-04-12T10:52:37.325Z,15.77
2018-04-12T10:55:11.016Z,15.07
2018-04-12T10:57:45.708Z,16.40
2018-04-12T11:00:20.440Z,15.60
2018-04-12T11:02:55.096Z,15.90
2018-04-12T11:05:29.785Z,15.03
2018-04-12T11:08:04.456Z,15.73
2018-04-12T11:10:39.874Z,14.10
2018-04-12T11:13:13.568Z,16.00
2018-04-12T11:15:49.313Z,16.30
2018-04-12T11:18:23.668Z,15.95
2018-04-12T11:20:58.872Z,17.17
2018-04-12T11:23:33.525Z,14.33
2018-04-12T11:26:07.223Z,15.53
2018-04-12T11:28:41.663Z,15.37
2018-04-12T11:31:16.115Z,15.17
2018-04-12T11:33:50.754Z,15.07
2018-04-12T11:36:24.424Z,16.57
2018-04-12T11:38:58.089Z,14.50
2018-04-12T11:41:31.762Z,14.27
2018-04-12T11:44:05.789Z,15.17
2018-04-12T11:46:40.226Z,15.00
2018-04-12T11:49:13.914Z,15.93
2018-04-12T11:51:47.604Z,15.70
2018-04-12T11:54:22.232Z,15.13
2018-04-12T11:56:56.877Z,15.80
2018-04-12T11:59:30.553Z,15.63
2018-04-12T12:02:04.232Z,15.73
2018-04-12T12:04:38.879Z,14.07
2018-04-12T12:07:12.572Z,14.40
2018-04-12T12:09:46.244Z,16.27
2018-04-12T12:12:19.998Z,16.00
2018-04-12T12:14:53.683Z,17.23
2018-04-12T12:17:27.369Z,16.20
2018-04-12T12:20:01.046Z,16.80
2018-04-12T12:22:34.725Z,16.90
2018-04-12T12:25:10.150Z,16.03
2018-04-12T12:27:43.824Z,16.53
2018-04-12T12:30:17.216Z,16.27
2018-04-12T12:32:50.899Z,16.97
2018-04-12T12:35:24.599Z,17.00
2018-04-12T12:37:58.285Z,15.97
2018-04-12T12:40:32.968Z,16.40
2018-04-12T12:43:06.656Z,16.47
2018-04-12T12:45:40.327Z,16.87
2018-04-12T12:48:14.995Z,17.37
2018-04-12T12:50:48.663Z,15.00
2018-04-12T12:53:22.351Z,17.03
2018-04-12T12:55:56.052Z,16.07
2018-04-12T12:58:29.896Z,17.13
2018-04-12T13:01:04.536Z,19.03
2018-04-12T13:03:38.251Z,15.80
2018-04-12T13:06:12.092Z,15.93
2018-04-12T13:08:45.819Z,16.87
2018-04-12T13:11:19.210Z,17.47
2018-04-12T13:13:52.901Z,16.37
2018-04-12T13:16:27.532Z,15.40
2018-04-12T13:19:01.204Z,17.80
2018-04-12T13:21:34.875Z,17.23
2018-04-12T13:24:09.128Z,17.60
2018-04-12T13:26:43.552Z,16.97
2018-04-12T13:29:18.980Z,16.80
2018-04-12T13:31:52.885Z,17.27
2018-04-12T13:34:29.475Z,17.80
2018-04-12T13:37:03.990Z,16.10
2018-04-12T13:39:38.669Z,16.70
2018-04-12T13:42:12.131Z,17.67
2018-04-12T13:44:45.813Z,17.03
2018-04-12T13:47:19.505Z,17.60
2018-04-12T13:49:56.674Z,16.30
2018-04-12T13:52:36.647Z,17.13
2018-04-12T13:55:13.296Z,16.77
2018-04-12T13:57:47.139Z,17.20
2018-04-12T14:00:22.944Z,15.23
2018-04-12T14:02:58.027Z,15.63
2018-04-12T14:05:34.720Z,17.40
2018-04-12T14:08:12.107Z,16.03
2018-04-12T14:10:45.971Z,16.63
2018-04-12T14:13:23.720Z,15.43
2018-04-12T14:16:01.007Z,16.03
2018-04-12T14:18:34.769Z,16.73
2018-04-12T14:21:08.433Z,16.57
2018-04-12T14:23:43.843Z,17.93
2018-04-12T14:26:18.483Z,17.40
2018-04-12T14:28:52.161Z,17.10
2018-04-12T14:31:25.823Z,16.33
2018-04-12T14:34:00.457Z,16.77
2018-04-12T14:36:35.121Z,15.33
2018-04-12T14:39:08.804Z,15.03
2018-04-12T14:41:42.264Z,16.07
2018-04-12T14:44:16.925Z,15.93
2018-04-12T14:46:51.573Z,15.50
2018-04-12T14:49:26.207Z,15.57
2018-04-12T14:52:00.648Z,15.67
2018-04-12T14:54:35.148Z,15.73
2018-04-12T14:57:09.579Z,15.37
2018-04-12T14:59:45.174Z,17.57
2018-04-12T15:02:19.894Z,19.33
2018-04-12T15:04:53.570Z,17.50
2018-04-12T15:07:27.060Z,20.67
2018-04-12T15:10:00.744Z,15.53
2018-04-12T15:12:35.181Z,26.20
2018-04-12T15:15:11.223Z,33.33
2018-04-12T15:17:46.635Z,20.53
2018-04-12T15:20:21.273Z,26.53
2018-04-12T15:22:55.747Z,17.87
2018-04-12T15:25:30.394Z,17.43
2018-04-12T15:28:05.052Z,16.53
2018-04-12T15:30:41.599Z,15.30
2018-04-12T15:33:16.325Z,15.93
2018-04-12T15:35:51.123Z,16.70
2018-04-12T15:38:25.353Z,30.43
2018-04-12T15:41:02.224Z,18.27
2018-04-12T15:43:37.872Z,12.83
2018-04-12T15:46:13.566Z,14.83
2018-04-12T15:48:48.002Z,13.73
2018-04-12T15:51:22.039Z,14.73
2018-04-12T15:53:56.685Z,13.80
2018-04-12T15:56:30.385Z,12.77
2018-04-12T15:59:06.098Z,13.57
2018-04-12T16:01:39.986Z,13.63
2018-04-12T16:04:14.168Z,13.47
2018-04-12T16:06:47.917Z,13.27
2018-04-12T16:09:22.708Z,13.10
2018-04-12T16:11:57.149Z,13.07
2018-04-12T16:14:30.829Z,12.53
2018-04-12T16:17:05.270Z,11.70
2018-04-12T16:19:38.730Z,12.73
2018-04-12T16:22:12.474Z,11.47
2018-04-12T16:24:47.139Z,11.67
2018-04-12T16:27:20.819Z,13.00
2018-04-12T16:29:54.519Z,11.97
2018-04-12T16:32:28.188Z,11.57
2018-04-12T16:35:02.624Z,13.63
2018-04-12T16:37:36.316Z,11.80
2018-04-12T16:40:10.034Z,12.03
2018-04-12T16:42:53.609Z,12.10
2018-04-12T16:45:28.882Z,12.60
2018-04-12T16:48:02.607Z,11.07
2018-04-12T16:50:36.087Z,11.93
2018-04-12T16:53:09.467Z,11.67
2018-04-12T16:55:47.576Z,11.30
2018-04-12T16:58:22.047Z,12.03
2018-04-12T17:00:55.748Z,12.17
2018-04-12T17:03:29.446Z,11.50
2018-04-12T17:06:04.107Z,11.60
2018-04-12T17:08:37.828Z,12.67
2018-04-12T17:11:12.526Z,12.13
2018-04-12T17:13:46.006Z,12.60
2018-04-12T17:16:20.545Z,12.27
2018-04-12T17:18:54.252Z,12.30
2018-04-12T17:21:28.943Z,12.20
2018-04-12T17:24:02.322Z,11.93
2018-04-12T17:26:36.984Z,12.47
2018-04-12T17:29:10.692Z,12.10
2018-04-12T17:31:45.381Z,12.67
2018-04-12T17:34:20.056Z,12.57
2018-04-12T17:36:54.502Z,12.07
2018-04-12T17:39:28.167Z,11.57
2018-04-12T17:42:01.847Z,10.23
2018-04-12T17:44:35.525Z,12.10
2018-04-12T17:49:58.697Z,12.77
2018-04-12T17:52:34.975Z,12.57
2018-04-12T17:55:15.029Z,12.23
2018-04-12T18:00:44.364Z,11.77
2018-04-12T18:03:18.179Z,12.63
2018-04-12T18:05:52.858Z,11.23
2018-04-12T18:08:30.309Z,12.33
2018-04-12T18:11:07.650Z,12.17
2018-04-12T18:13:44.768Z,11.37
2018-04-12T18:16:19.531Z,11.83
2018-04-12T18:18:53.240Z,12.90
2018-04-12T18:21:27.941Z,11.57
2018-04-12T18:24:01.633Z,12.57
2018-04-12T18:26:44.835Z,12.03
2018-04-12T18:29:20.255Z,12.70
2018-04-12T18:31:53.917Z,13.47
2018-04-12T18:34:27.589Z,12.80
2018-04-12T18:37:01.277Z,13.10
2018-04-12T18:39:35.919Z,12.27
2018-04-12T18:42:17.015Z,12.67
2018-04-12T18:44:51.714Z,12.40
2018-04-12T18:47:25.433Z,13.23
2018-04-12T18:50:00.822Z,12.30
2018-04-12T18:52:34.486Z,11.93
2018-04-12T18:55:07.982Z,13.00
2018-04-12T18:57:41.653Z,13.33
2018-04-12T19:00:15.329Z,12.93
2018-04-12T19:02:49.011Z,13.17
2018-04-12T19:05:22.876Z,12.33
2018-04-12T19:07:58.284Z,13.07
2018-04-12T19:10:31.961Z,14.00
2018-04-12T19:13:05.621Z,12.30
2018-04-12T19:15:39.290Z,13.07
2018-04-12T19:18:12.975Z,12.73
2018-04-12T19:23:30.491Z,12.97
2018-04-12T19:26:09.797Z,13.20
2018-04-12T19:28:44.553Z,13.37
2018-04-12T19:31:19.202Z,13.50
2018-04-12T19:33:52.896Z,13.90
2018-04-12T19:36:26.567Z,13.23
2018-04-12T19:39:00.332Z,13.10
2018-04-12T19:41:35.377Z,12.97
2018-04-12T19:44:09.041Z,13.47
2018-04-12T19:46:42.703Z,13.17
2018-04-12T19:49:17.367Z,13.40
2018-04-12T19:51:52.566Z,12.20
2018-04-12T19:54:26.331Z,13.43
2018-04-12T19:57:00.229Z,13.70
2018-04-12T19:59:33.893Z,14.30
2018-04-12T20:02:08.589Z,14.10
2018-04-12T20:04:43.112Z,13.33
2018-04-12T20:07:17.541Z,14.17
2018-04-12T20:09:51.584Z,13.47
2018-04-12T20:12:25.278Z,14.27
2018-04-12T20:14:58.954Z,14.33
2018-04-12T20:17:32.658Z,14.33
2018-04-12T20:20:07.325Z,14.50
2018-04-12T20:22:42.057Z,15.40
2018-04-12T20:25:16.775Z,14.50
2018-04-12T20:27:51.456Z,14.80
2018-04-12T20:30:25.164Z,14.57
2018-04-12T20:32:58.830Z,14.37
2018-04-12T20:35:32.520Z,15.20
2018-04-12T20:38:06.195Z,15.27
2018-04-12T20:40:40.842Z,13.90
2018-04-12T20:43:14.482Z,14.80
2018-04-12T20:45:48.161Z,15.33
2018-04-12T20:51:11.946Z,15.33
2018-04-12T20:59:35.158Z,16.63
2018-04-12T21:02:20.279Z,16.53
2018-04-12T21:04:56.606Z,14.70
2018-04-12T21:07:43.387Z,17.27
2018-04-12T21:10:25.198Z,16.60
2018-04-12T21:13:02.308Z,15.77
2018-04-12T21:15:39.981Z,16.80
2018-04-12T21:18:13.658Z,16.07
2018-04-12T21:20:51.850Z,17.50
2018-04-12T21:23:29.473Z,15.27
2018-04-12T21:26:03.167Z,16.67
2018-04-12T21:28:40.181Z,15.60
2018-04-12T21:31:19.258Z,16.60
2018-04-12T21:33:54.057Z,15.37
2018-04-12T21:36:31.027Z,17.23
2018-04-12T21:41:55.401Z,16.07
2018-04-12T21:44:30.814Z,17.43
2018-04-12T21:47:05.033Z,16.30
2018-04-12T21:49:42.958Z,16.30
2018-04-12T21:52:26.901Z,16.00
2018-04-12T21:55:03.773Z,16.60
2018-04-12T21:57:39.424Z,16.73
2018-04-12T22:00:21.673Z,16.93
2018-04-12T22:02:55.091Z,15.87
2018-04-12T22:05:28.868Z,15.73
2018-04-12T22:08:02.626Z,15.97
2018-04-12T22:10:37.364Z,16.63
2018-04-12T22:13:11.114Z,17.37
2018-04-12T22:15:46.388Z,15.97
2018-04-12T22:18:21.120Z,16.80
2018-04-12T22:20:54.878Z,17.57
2018-04-12T22:23:28.628Z,16.93
2018-04-12T22:26:02.400Z,16.80
2018-04-12T22:28:36.913Z,15.97
2018-04-12T22:31:11.438Z,16.53
2018-04-12T22:33:45.957Z,16.60
2018-04-12T22:36:20.485Z,16.57
2018-04-12T22:38:55.007Z,18.10
2018-04-12T22:41:29.544Z,16.30
2018-04-12T22:44:03.016Z,16.53
2018-04-12T22:46:38.472Z,16.67
2018-04-12T22:49:12.994Z,16.80
2018-04-12T22:51:48.290Z,17.57
2018-04-12T22:54:23.018Z,16.80
2018-04-12T22:56:57.780Z,17.00
2018-04-12T22:59:33.010Z,16.00
2018-04-12T23:02:08.530Z,16.43
2018-04-12T23:04:43.293Z,17.07
2018-04-12T23:07:18.746Z,17.77
2018-04-12T23:09:52.521Z,16.33
2018-04-12T23:12:27.054Z,16.50
2018-04-12T23:15:01.585Z,16.73
2018-04-12T23:17:35.351Z,16.90
2018-04-12T23:20:09.110Z,16.00
2018-04-12T23:22:42.874Z,17.73
2018-04-12T23:25:18.385Z,16.93
2018-04-12T23:27:53.155Z,17.93
2018-04-12T23:30:27.682Z,16.83
2018-04-12T23:33:03.377Z,18.00
2018-04-12T23:35:38.090Z,18.13
2018-04-12T23:38:12.817Z,16.70
2018-04-12T23:40:47.575Z,17.17
2018-04-12T23:43:21.337Z,17.33
2018-04-12T23:45:55.089Z,18.07
2018-04-12T23:48:28.844Z,18.20
2018-04-12T23:51:02.653Z,18.73
2018-04-12T23:53:36.436Z,18.60
2018-04-12T23:56:10.190Z,19.07
2018-04-12T23:58:43.959Z,18.10
